createdAt,value
2022-12-01T00:01:21.203Z,188.23
2022-12-01T00:03:49.092Z,127.82
2022-12-01T00:06:21.301Z,303.58
2022-12-01T00:09:09.869Z,307.40
2022-12-01T00:11:38.877Z,540.80
2022-12-01T00:14:06.692Z,204.50
2022-12-01T00:16:34.986Z,241.80
2022-12-01T00:19:02.572Z,454.75
2022-12-01T00:21:30.171Z,341.88
2022-12-01T00:23:58.378Z,250.73
2022-12-01T00:26:27.850Z,213.52
2022-12-01T00:28:57.798Z,153.85
2022-12-01T00:31:26.542Z,192.70
2022-12-01T00:33:54.113Z,338.10
2022-12-01T00:36:22.638Z,387.75
2022-12-01T00:38:55.104Z,540.15
2022-12-01T00:41:24.522Z,227.18
2022-12-01T00:43:52.447Z,271.70
2022-12-01T00:46:21.086Z,119.55
2022-12-01T00:48:49.729Z,145.82
2022-12-01T00:51:17.321Z,289.42
2022-12-01T00:53:44.781Z,381.42
2022-12-01T00:56:12.743Z,261.25
2022-12-01T00:58:40.218Z,177.90
2022-12-01T01:01:07.839Z,465.67
2022-12-01T01:03:35.466Z,511.38
2022-12-01T01:06:11.502Z,185.15
2022-12-01T01:08:39.768Z,327.23
2022-12-01T01:11:07.713Z,570.97
2022-12-01T01:13:36.088Z,116.55
2022-12-01T01:16:11.463Z,86.28
2022-12-01T01:18:38.973Z,217.63
2022-12-01T01:21:09.198Z,416.80
2022-12-01T01:23:38.681Z,534.65
2022-12-01T01:26:40.678Z,350.48
2022-12-01T01:29:08.381Z,294.10
2022-12-01T01:31:36.638Z,549.88
2022-12-01T01:34:04.549Z,342.88
2022-12-01T01:36:32.103Z,401.17
2022-12-01T01:39:01.150Z,450.55
2022-12-01T01:41:29.042Z,573.35
2022-12-01T01:44:03.092Z,417.63
2022-12-01T01:46:33.576Z,437.30
2022-12-01T01:49:04.033Z,165.32
2022-12-01T01:51:45.531Z,329.75
2022-12-01T01:54:28.325Z,581.00
2022-12-01T01:56:57.792Z,357.35
2022-12-01T01:59:31.244Z,401.23
2022-12-01T02:02:10.261Z,496.17
2022-12-01T02:04:41.847Z,395.55
2022-12-01T02:07:11.912Z,569.08
2022-12-01T02:09:39.382Z,531.70
2022-12-01T02:12:43.532Z,736.60
2022-12-01T02:15:35.833Z,310.02
2022-12-01T02:18:39.460Z,733.47
2022-12-01T02:21:25.149Z,416.97
2022-12-01T02:24:30.260Z,89.03
2022-12-01T02:28:01.811Z,119.15
2022-12-01T02:30:39.574Z,549.45
2022-12-01T02:33:40.749Z,590.83
2022-12-01T02:36:22.895Z,147.00
2022-12-01T02:38:59.262Z,150.60
2022-12-01T02:41:30.707Z,473.17
2022-12-01T02:44:05.292Z,651.53
2022-12-01T02:46:59.078Z,503.48
2022-12-01T02:49:31.033Z,675.95
2022-12-01T02:51:59.545Z,573.75
2022-12-01T02:54:31.459Z,366.90
2022-12-01T02:56:59.704Z,635.75
2022-12-01T02:59:27.188Z,725.67
2022-12-01T03:02:20.703Z,845.42
2022-12-01T03:04:50.960Z,469.25
2022-12-01T03:07:37.253Z,839.13
2022-12-01T03:10:16.580Z,591.47
2022-12-01T03:13:17.510Z,413.70
2022-12-01T03:15:50.933Z,372.85
2022-12-01T03:18:37.270Z,230.40
2022-12-01T03:21:09.781Z,419.98
2022-12-01T03:23:44.641Z,332.70
2022-12-01T03:26:17.442Z,537.35
2022-12-01T03:28:52.832Z,127.47
2022-12-01T03:31:27.123Z,176.73
2022-12-01T03:34:11.281Z,735.05
2022-12-01T03:36:53.731Z,718.53
2022-12-01T03:39:26.717Z,467.33
2022-12-01T03:42:12.131Z,614.92
2022-12-01T03:44:46.350Z,221.73
2022-12-01T03:47:18.491Z,650.88
2022-12-01T03:49:47.554Z,575.75
2022-12-01T03:52:38.155Z,483.70
2022-12-01T03:55:14.002Z,776.08
2022-12-01T03:57:50.358Z,495.65
2022-12-01T04:00:19.765Z,475.30
2022-12-01T04:02:49.129Z,445.40
2022-12-01T04:05:19.959Z,440.20
2022-12-01T04:07:50.063Z,573.22
2022-12-01T04:10:17.910Z,352.95
2022-12-01T04:12:45.631Z,429.23
2022-12-01T04:15:14.610Z,505.20
2022-12-01T04:17:43.739Z,361.98
2022-12-01T04:20:16.692Z,251.98
2022-12-01T04:22:44.499Z,187.30
2022-12-01T04:25:12.521Z,169.63
2022-12-01T04:27:40.324Z,445.33
2022-12-01T04:30:08.559Z,353.17
2022-12-01T04:32:40.382Z,476.02
2022-12-01T04:35:10.623Z,528.13
2022-12-01T04:37:39.151Z,467.42
2022-12-01T04:40:07.571Z,380.67
2022-12-01T04:42:35.090Z,476.67
2022-12-01T04:45:02.703Z,636.10
2022-12-01T04:47:30.192Z,237.30
2022-12-01T04:49:57.707Z,425.75
2022-12-01T04:52:26.086Z,266.05
2022-12-01T04:54:54.879Z,425.92
2022-12-01T04:57:22.347Z,379.23
2022-12-01T04:59:50.078Z,442.13
2022-12-01T05:02:17.914Z,535.88
2022-12-01T05:04:48.096Z,398.05
2022-12-01T05:07:15.689Z,355.50
2022-12-01T05:13:50.433Z,497.90
2022-12-01T05:16:21.005Z,568.25
2022-12-01T05:19:16.541Z,485.30
2022-12-01T05:21:45.692Z,546.13
2022-12-01T05:24:14.507Z,219.50
2022-12-01T05:26:43.463Z,288.83
2022-12-01T05:29:11.748Z,548.13
2022-12-01T05:31:39.991Z,536.42
2022-12-01T05:34:08.437Z,187.32
2022-12-01T05:36:36.604Z,256.58
2022-12-01T05:39:04.727Z,276.63
2022-12-01T05:41:32.314Z,195.70
2022-12-01T05:43:59.735Z,175.15
2022-12-01T05:46:27.425Z,495.67
2022-12-01T05:48:54.925Z,571.25
2022-12-01T05:51:22.477Z,232.57
2022-12-01T05:53:50.057Z,124.28
2022-12-01T05:56:17.511Z,363.85
2022-12-01T05:58:45.718Z,118.40
2022-12-01T06:01:13.167Z,439.38
2022-12-01T06:03:40.787Z,472.80
2022-12-01T06:06:08.277Z,357.13
2022-12-01T06:08:35.771Z,568.22
2022-12-01T06:11:03.416Z,244.18
2022-12-01T06:13:30.914Z,228.27
2022-12-01T06:16:00.217Z,145.98
2022-12-01T06:18:28.194Z,176.38
2022-12-01T06:20:55.796Z,183.88
2022-12-01T06:23:27.592Z,266.92
2022-12-01T06:25:58.530Z,250.55
2022-12-01T06:28:25.994Z,159.27
2022-12-01T06:30:57.761Z,124.95
2022-12-01T06:33:28.867Z,149.40
2022-12-01T06:36:00.277Z,426.30
2022-12-01T06:38:31.587Z,269.52
2022-12-01T06:40:59.696Z,211.32
2022-12-01T06:43:27.732Z,188.68
2022-12-01T06:46:01.152Z,184.60
2022-12-01T06:48:30.227Z,145.85
2022-12-01T06:50:59.157Z,143.90
2022-12-01T06:53:28.673Z,202.65
2022-12-01T06:56:04.691Z,261.15
2022-12-01T06:58:33.012Z,441.92
2022-12-01T07:01:01.163Z,300.00
2022-12-01T07:03:28.818Z,175.07
2022-12-01T07:05:59.037Z,133.23
2022-12-01T07:08:28.675Z,196.00
2022-12-01T07:11:04.908Z,179.45
2022-12-01T07:13:33.909Z,155.10
2022-12-01T07:16:06.136Z,177.68
2022-12-01T07:18:34.438Z,185.48
2022-12-01T07:21:04.202Z,180.93
2022-12-01T07:23:31.898Z,187.45
2022-12-01T07:26:21.889Z,200.05
2022-12-01T07:28:49.498Z,172.38
2022-12-01T07:31:19.383Z,181.07
2022-12-01T07:33:47.088Z,203.02
2022-12-01T07:36:14.937Z,231.70
2022-12-01T07:38:43.307Z,234.00
2022-12-01T07:41:16.017Z,248.32
2022-12-01T07:43:43.708Z,245.07
2022-12-01T07:46:22.366Z,239.38
2022-12-01T07:48:51.080Z,276.98
2022-12-01T07:51:19.594Z,278.50
2022-12-01T07:53:49.717Z,309.42
2022-12-01T07:56:18.334Z,441.00
2022-12-01T07:58:46.128Z,397.70
2022-12-01T08:01:16.979Z,349.70
2022-12-01T08:03:45.136Z,339.85
2022-12-01T08:06:12.964Z,386.30
2022-12-01T08:08:41.768Z,275.70
2022-12-01T08:11:18.412Z,317.17
2022-12-01T08:13:46.077Z,302.75
2022-12-01T08:16:15.552Z,253.35
2022-12-01T08:18:44.969Z,323.90
2022-12-01T08:21:16.348Z,287.42
2022-12-01T08:23:44.877Z,265.63
2022-12-01T08:26:15.270Z,263.65
2022-12-01T08:28:43.228Z,256.55
2022-12-01T08:31:31.788Z,280.50
2022-12-01T08:33:59.796Z,300.65
2022-12-01T08:36:27.483Z,271.67
2022-12-01T08:38:56.084Z,280.33
2022-12-01T08:41:24.892Z,273.88
2022-12-01T08:44:00.774Z,288.52
2022-12-01T08:46:32.865Z,260.58
2022-12-01T08:49:01.720Z,255.55
2022-12-01T08:51:29.869Z,261.13
2022-12-01T08:54:01.839Z,252.30
2022-12-01T08:56:35.906Z,256.00
2022-12-01T08:59:04.165Z,294.60
2022-12-01T09:01:33.185Z,293.70
2022-12-01T09:04:10.912Z,266.45
2022-12-01T09:06:41.407Z,280.95
2022-12-01T09:09:10.975Z,283.95
2022-12-01T09:11:39.276Z,265.92
2022-12-01T09:14:07.163Z,265.27
2022-12-01T09:16:34.830Z,245.00
2022-12-01T09:19:02.487Z,259.08
2022-12-01T09:21:31.756Z,252.57
2022-12-01T09:24:00.436Z,250.38
2022-12-01T09:26:28.595Z,229.90
2022-12-01T09:29:00.766Z,235.93
2022-12-01T09:31:28.863Z,243.32
2022-12-01T09:33:59.015Z,270.83
2022-12-01T09:36:27.445Z,241.10
2022-12-01T09:38:54.908Z,263.58
2022-12-01T09:41:31.146Z,260.88
2022-12-01T09:44:06.085Z,261.80
2022-12-01T09:46:40.899Z,267.52
2022-12-01T09:49:23.010Z,263.42
2022-12-01T09:51:54.116Z,255.48
2022-12-01T09:54:21.799Z,266.65
2022-12-01T09:56:53.287Z,286.80
2022-12-01T09:59:27.175Z,309.90
2022-12-01T10:02:02.698Z,272.05
2022-12-01T10:04:40.081Z,290.02
2022-12-01T10:08:03.905Z,273.45
2022-12-01T10:10:38.483Z,303.20
2022-12-01T10:13:20.842Z,288.13
2022-12-01T10:15:54.507Z,281.48
2022-12-01T10:21:14.572Z,293.88
2022-12-01T10:23:58.563Z,267.55
2022-12-01T10:29:34.736Z,269.42
2022-12-01T10:32:57.803Z,277.70
2022-12-01T10:35:37.406Z,262.77
2022-12-01T10:38:12.351Z,280.38
2022-12-01T10:40:41.952Z,277.02
2022-12-01T10:43:10.867Z,272.35
2022-12-01T10:45:44.124Z,281.20
2022-12-01T10:48:15.781Z,276.20
2022-12-01T10:50:52.486Z,271.65
2022-12-01T10:53:22.706Z,263.80
2022-12-01T10:55:56.497Z,251.38
2022-12-01T10:58:24.243Z,249.73
2022-12-01T11:01:02.002Z,254.98
2022-12-01T11:03:35.488Z,236.38
2022-12-01T11:06:05.911Z,246.32
2022-12-01T11:08:44.759Z,230.43
2022-12-01T11:11:41.516Z,231.93
2022-12-01T11:14:21.372Z,205.20
2022-12-01T11:16:52.524Z,220.77
2022-12-01T11:19:34.334Z,217.75
2022-12-01T11:22:19.672Z,223.02
2022-12-01T11:24:53.278Z,209.32
2022-12-01T11:29:53.004Z,210.23
2022-12-01T11:32:30.596Z,199.30
2022-12-01T11:35:32.158Z,215.98
2022-12-01T11:40:54.198Z,208.57
2022-12-01T11:43:21.708Z,210.40
2022-12-01T11:45:49.720Z,207.13
2022-12-01T11:48:29.018Z,202.70
2022-12-01T11:51:11.989Z,205.80
2022-12-01T11:53:44.008Z,190.65
2022-12-01T11:56:17.581Z,180.00
2022-12-01T12:01:29.828Z,198.35
2022-12-01T12:03:57.407Z,179.38
2022-12-01T12:06:52.687Z,177.02
2022-12-01T12:09:25.941Z,190.52
2022-12-01T12:12:15.164Z,173.10
2022-12-01T12:15:33.202Z,175.52
2022-12-01T12:18:31.376Z,170.57
2022-12-01T12:21:17.315Z,184.15
2022-12-01T12:24:05.999Z,179.27
2022-12-01T12:26:41.884Z,178.27
2022-12-01T12:29:24.435Z,164.45
2022-12-01T12:31:58.004Z,172.20
2022-12-01T12:34:40.861Z,162.68
2022-12-01T12:37:30.881Z,168.88
2022-12-01T12:40:41.024Z,156.18
2022-12-01T12:43:27.167Z,169.70
2022-12-01T12:46:02.502Z,168.43
2022-12-01T12:52:13.519Z,160.48
2022-12-01T12:55:19.485Z,171.77
2022-12-01T12:57:58.463Z,160.13
2022-12-01T13:00:29.016Z,158.20
2022-12-01T13:02:59.901Z,160.05
2022-12-01T13:05:44.051Z,150.05
2022-12-01T13:08:16.206Z,161.00
2022-12-01T13:10:46.523Z,167.40
2022-12-01T13:13:38.942Z,173.52
2022-12-01T13:16:12.973Z,170.25
2022-12-01T13:18:49.494Z,171.00
2022-12-01T13:21:20.516Z,171.55
2022-12-01T13:23:50.914Z,174.63
2022-12-01T13:26:21.345Z,187.85
2022-12-01T13:28:57.606Z,193.48
2022-12-01T13:31:25.749Z,187.13
2022-12-01T13:34:01.471Z,199.43
2022-12-01T13:36:46.380Z,199.07
2022-12-01T13:39:19.691Z,192.32
2022-12-01T13:42:01.087Z,209.75
2022-12-01T13:44:32.866Z,203.93
2022-12-01T13:47:12.635Z,205.13
2022-12-01T13:49:42.400Z,189.38
2022-12-01T13:52:22.154Z,196.18
2022-12-01T13:55:07.852Z,203.70
2022-12-01T13:58:14.261Z,201.27
2022-12-01T14:00:43.236Z,207.98
2022-12-01T14:03:13.688Z,208.05
2022-12-01T14:05:57.318Z,210.98
2022-12-01T14:08:28.479Z,202.13
2022-12-01T14:11:25.236Z,193.98
2022-12-01T14:13:58.701Z,198.65
2022-12-01T14:16:49.995Z,198.05
2022-12-01T14:19:47.625Z,211.65
2022-12-01T14:22:44.205Z,215.10
2022-12-01T14:25:20.999Z,226.18
2022-12-01T14:27:55.047Z,226.35
2022-12-01T14:30:41.195Z,220.40
2022-12-01T14:33:39.817Z,216.13
2022-12-01T14:36:17.055Z,226.32
2022-12-01T14:38:46.285Z,234.95
2022-12-01T14:41:24.616Z,209.88
2022-12-01T14:44:03.954Z,231.45
2022-12-01T14:46:58.648Z,210.63
2022-12-01T14:49:32.336Z,223.98
2022-12-01T14:52:05.567Z,229.95
2022-12-01T14:54:42.146Z,213.60
2022-12-01T14:57:16.577Z,221.43
2022-12-01T14:59:45.072Z,213.55
2022-12-01T15:02:14.046Z,202.80
2022-12-01T15:05:08.508Z,216.77
2022-12-01T15:07:41.165Z,217.00
2022-12-01T15:10:24.515Z,219.05
2022-12-01T15:12:53.435Z,202.32
2022-12-01T15:15:25.086Z,212.10
2022-12-01T15:17:55.878Z,219.27
2022-12-01T15:20:35.837Z,207.85
2022-12-01T15:23:13.327Z,211.63
2022-12-01T15:25:43.506Z,201.60
2022-12-01T15:28:30.896Z,208.55
2022-12-01T15:30:59.894Z,198.05
2022-12-01T15:33:36.972Z,205.98
2022-12-01T15:36:07.328Z,193.52
2022-12-01T15:38:37.103Z,199.57
2022-12-01T15:44:02.184Z,186.18
2022-12-01T15:46:32.176Z,199.60
2022-12-01T15:49:16.151Z,214.25
2022-12-01T15:51:44.683Z,186.80
2022-12-01T15:54:24.650Z,191.48
2022-12-01T15:56:58.714Z,181.02
2022-12-01T15:59:37.006Z,185.38
2022-12-01T16:02:27.315Z,188.10
2022-12-01T16:05:15.477Z,194.38
2022-12-01T16:08:12.189Z,185.93
2022-12-01T16:10:35.090Z,179.15
2022-12-01T16:13:36.462Z,188.07
2022-12-01T16:16:31.608Z,179.23
2022-12-01T16:19:02.435Z,175.52
2022-12-01T16:21:44.121Z,180.15
2022-12-01T16:24:22.805Z,180.55
2022-12-01T16:27:02.663Z,183.88
2022-12-01T16:29:35.511Z,189.50
2022-12-01T16:32:22.064Z,187.77
2022-12-01T16:34:53.521Z,196.15
2022-12-01T16:37:22.328Z,190.80
2022-12-01T16:39:50.928Z,174.35
2022-12-01T16:42:24.151Z,180.48
2022-12-01T16:44:52.250Z,176.75
2022-12-01T16:47:23.246Z,169.02
2022-12-01T16:49:51.836Z,173.68
2022-12-01T16:55:36.762Z,162.70
2022-12-01T16:58:04.961Z,163.80
2022-12-01T17:00:32.760Z,160.23
2022-12-01T17:03:00.716Z,157.30
2022-12-01T17:05:28.542Z,159.82
2022-12-01T17:07:56.333Z,150.13
2022-12-01T17:10:24.282Z,142.68
2022-12-01T17:12:51.946Z,150.00
2022-12-01T17:15:19.706Z,142.80
2022-12-01T17:17:47.185Z,142.70
2022-12-01T17:20:16.092Z,146.95
2022-12-01T17:22:43.796Z,137.73
2022-12-01T17:25:11.394Z,145.52
2022-12-01T17:27:39.201Z,140.40
2022-12-01T17:30:07.504Z,128.02
2022-12-01T17:32:35.177Z,138.20
2022-12-01T17:35:03.304Z,124.45
2022-12-01T17:37:30.865Z,144.43
2022-12-01T17:39:58.381Z,134.60
2022-12-01T17:42:25.877Z,135.63
2022-12-01T17:44:53.383Z,132.00
2022-12-01T17:47:20.878Z,137.85
2022-12-01T17:49:48.446Z,129.13
2022-12-01T17:52:16.151Z,138.05
2022-12-01T17:54:43.786Z,130.57
2022-12-01T17:57:11.614Z,130.88
2022-12-01T17:59:40.354Z,123.85
2022-12-01T18:02:11.627Z,126.80
2022-12-01T18:04:39.818Z,128.55
2022-12-01T18:07:07.611Z,137.02
2022-12-01T18:09:35.206Z,138.48
2022-12-01T18:12:02.779Z,138.70
2022-12-01T18:14:31.194Z,134.27
2022-12-01T18:16:58.652Z,137.27
2022-12-01T18:19:26.674Z,137.95
2022-12-01T18:21:54.208Z,137.45
2022-12-01T18:24:21.685Z,138.95
2022-12-01T18:26:49.274Z,143.60
2022-12-01T18:29:26.019Z,135.60
2022-12-01T18:31:55.237Z,127.68
2022-12-01T18:34:23.013Z,132.55
2022-12-01T18:36:50.691Z,125.82
2022-12-01T18:39:18.235Z,126.55
2022-12-01T18:41:45.771Z,126.30
2022-12-01T18:44:13.515Z,135.70
2022-12-01T18:46:41.243Z,132.32
2022-12-01T18:49:09.334Z,123.45
2022-12-01T18:51:38.399Z,126.85
2022-12-01T18:54:07.692Z,129.80
2022-12-01T18:56:35.471Z,139.75
2022-12-01T18:59:05.848Z,139.80
2022-12-01T19:01:37.471Z,127.03
2022-12-01T19:04:06.299Z,124.72
2022-12-01T19:06:35.376Z,119.35
2022-12-01T19:09:05.290Z,120.03
2022-12-01T19:11:33.586Z,111.68
2022-12-01T19:14:01.274Z,122.85
2022-12-01T19:16:28.854Z,119.85
2022-12-01T19:18:57.035Z,123.65
2022-12-01T19:21:24.514Z,124.47
2022-12-01T19:23:53.202Z,127.00
2022-12-01T19:26:22.395Z,127.05
2022-12-01T19:28:50.545Z,114.07
2022-12-01T19:31:21.024Z,118.88
2022-12-01T19:33:48.696Z,117.50
2022-12-01T19:36:18.664Z,115.00
2022-12-01T19:38:47.856Z,112.68
2022-12-01T19:41:16.386Z,121.15
2022-12-01T19:43:43.951Z,111.93
2022-12-01T19:46:14.887Z,118.65
2022-12-01T19:48:43.461Z,110.88
2022-12-01T19:51:18.877Z,116.07
2022-12-01T19:53:47.035Z,112.05
2022-12-01T19:56:14.766Z,106.20
2022-12-01T19:58:42.351Z,115.57
2022-12-01T20:01:12.574Z,108.75
2022-12-01T20:03:40.849Z,121.70
2022-12-01T20:06:11.305Z,113.55
2022-12-01T20:08:39.680Z,109.35
2022-12-01T20:11:07.833Z,113.60
2022-12-01T20:13:38.844Z,112.65
2022-12-01T20:16:12.410Z,117.03
2022-12-01T20:21:26.205Z,126.00
2022-12-01T20:23:59.667Z,125.65
2022-12-01T20:26:34.171Z,125.07
2022-12-01T20:29:14.915Z,127.57
2022-12-01T20:31:43.840Z,123.10
2022-12-01T20:34:17.795Z,125.90
2022-12-01T20:36:46.065Z,121.53
2022-12-01T20:39:14.445Z,118.40
2022-12-01T20:41:42.895Z,117.88
2022-12-01T20:44:12.692Z,105.25
2022-12-01T20:46:45.355Z,113.13
2022-12-01T20:49:14.626Z,128.10
2022-12-01T20:51:42.304Z,112.35
2022-12-01T20:54:27.758Z,119.72
2022-12-01T20:56:55.898Z,122.32
2022-12-01T20:59:23.571Z,119.95
2022-12-01T21:01:51.085Z,115.88
2022-12-01T21:04:18.809Z,113.75
2022-12-01T21:06:46.552Z,114.93
2022-12-01T21:09:15.147Z,109.97
2022-12-01T21:12:06.402Z,118.63
2022-12-01T21:15:20.377Z,119.00
2022-12-01T21:18:04.028Z,112.10
2022-12-01T21:20:36.161Z,112.68
2022-12-01T21:23:12.383Z,110.20
2022-12-01T21:25:41.667Z,104.60
2022-12-01T21:28:24.861Z,104.57
2022-12-01T21:31:14.230Z,86.35
2022-12-01T21:33:42.662Z,110.10
2022-12-01T21:36:22.696Z,116.28
2022-12-01T21:38:59.197Z,110.57
2022-12-01T21:41:28.855Z,122.85
2022-12-01T21:44:02.711Z,119.10
2022-12-01T21:46:30.268Z,114.22
2022-12-01T21:48:57.869Z,122.20
2022-12-01T21:51:26.114Z,122.82
2022-12-01T21:53:55.825Z,131.50
2022-12-01T21:56:28.111Z,121.80
2022-12-01T21:58:59.117Z,125.25
2022-12-01T22:01:29.299Z,130.90
2022-12-01T22:04:02.400Z,126.63
2022-12-01T22:06:40.302Z,116.90
2022-12-01T22:09:18.042Z,123.68
2022-12-01T22:11:51.062Z,116.10
2022-12-01T22:14:24.563Z,123.90
2022-12-01T22:17:07.192Z,127.38
2022-12-01T22:19:38.455Z,125.63
2022-12-01T22:22:11.703Z,124.45
2022-12-01T22:24:51.712Z,131.63
2022-12-01T22:27:29.754Z,132.85
2022-12-01T22:30:20.233Z,122.10
2022-12-01T22:33:00.631Z,123.03
2022-12-01T22:35:33.224Z,127.32
2022-12-01T22:38:06.704Z,127.53
2022-12-01T22:40:47.862Z,128.18
2022-12-01T22:43:18.330Z,128.50
2022-12-01T22:45:52.764Z,130.60
2022-12-01T22:48:37.635Z,132.77
2022-12-01T22:51:14.160Z,138.00
2022-12-01T22:53:43.181Z,137.82
2022-12-01T22:56:29.311Z,134.60
2022-12-01T22:58:56.954Z,134.48
2022-12-01T23:01:30.304Z,131.10
2022-12-01T23:04:08.752Z,129.63
2022-12-01T23:07:02.335Z,126.82
2022-12-01T23:09:36.282Z,139.10
2022-12-01T23:12:09.941Z,132.93
2022-12-01T23:17:18.764Z,132.88
2022-12-01T23:19:47.219Z,133.13
2022-12-01T23:22:15.815Z,139.98
2022-12-01T23:24:43.707Z,135.05
2022-12-01T23:27:11.543Z,126.93
2022-12-01T23:29:39.084Z,136.20
2022-12-01T23:32:06.654Z,132.85
2022-12-01T23:34:34.821Z,126.97
2022-12-01T23:37:02.484Z,120.75
2022-12-01T23:39:34.619Z,129.90
2022-12-01T23:42:02.915Z,127.70
2022-12-01T23:44:46.975Z,127.60
2022-12-01T23:47:22.615Z,122.25
2022-12-01T23:50:00.246Z,129.98
2022-12-01T23:52:35.306Z,129.98
2022-12-01T23:55:14.675Z,134.32
2022-12-01T23:57:42.901Z,139.40
